createdAt,value
2018-09-29T00:02:05.013Z,11.70
2018-09-29T00:04:33.972Z,11.70
2018-09-29T00:07:03.532Z,11.70
2018-09-29T00:09:32.508Z,11.60
2018-09-29T00:12:01.475Z,11.70
2018-09-29T00:14:30.257Z,11.60
2018-09-29T00:16:59.348Z,11.60
2018-09-29T00:19:28.498Z,11.60
2018-09-29T00:21:57.413Z,11.60
2018-09-29T00:24:28.021Z,11.60
2018-09-29T00:26:57.146Z,11.50
2018-09-29T00:29:26.090Z,11.50
2018-09-29T00:31:55.525Z,11.50
2018-09-29T00:34:25.105Z,11.50
2018-09-29T00:36:54.122Z,11.50
2018-09-29T00:39:23.117Z,11.40
2018-09-29T00:41:52.069Z,11.40
2018-09-29T00:44:21.692Z,11.40
2018-09-29T00:46:51.318Z,11.30
2018-09-29T00:49:20.231Z,11.30
2018-09-29T00:51:49.284Z,11.30
2018-09-29T00:54:18.634Z,11.20
2018-09-29T00:56:47.492Z,11.20
2018-09-29T00:59:16.290Z,11.10
2018-09-29T01:01:45.296Z,11.10
2018-09-29T01:04:14.049Z,11.10
2018-09-29T01:06:42.978Z,11.10
2018-09-29T01:09:12.056Z,11.10
2018-09-29T01:11:41.156Z,11.10
2018-09-29T01:14:10.728Z,11.00
2018-09-29T01:16:39.693Z,10.90
2018-09-29T01:19:08.737Z,10.90
2018-09-29T01:21:38.084Z,10.70
2018-09-29T01:24:07.280Z,10.60
2018-09-29T01:26:36.520Z,10.50
2018-09-29T01:29:05.811Z,10.40
2018-09-29T01:31:34.936Z,10.40
2018-09-29T01:34:03.924Z,10.30
2018-09-29T01:36:32.770Z,10.30
2018-09-29T01:39:02.725Z,10.30
2018-09-29T01:41:31.780Z,10.20
2018-09-29T01:44:01.245Z,10.20
2018-09-29T01:46:30.314Z,10.10
2018-09-29T01:48:59.339Z,10.00
2018-09-29T01:51:28.901Z,9.90
2018-09-29T01:53:57.625Z,9.80
2018-09-29T01:56:26.448Z,9.70
2018-09-29T01:58:55.404Z,9.60
2018-09-29T02:01:24.780Z,9.50
2018-09-29T02:03:54.066Z,9.40
2018-09-29T02:06:23.007Z,9.40
2018-09-29T02:08:52.497Z,9.30
2018-09-29T02:11:22.203Z,9.30
2018-09-29T02:13:50.981Z,9.20
2018-09-29T02:16:20.019Z,9.20
2018-09-29T02:18:49.488Z,9.00
2018-09-29T02:21:18.520Z,8.90
2018-09-29T02:23:47.268Z,8.80
2018-09-29T02:26:16.565Z,8.70
2018-09-29T02:28:45.403Z,8.50
2018-09-29T02:31:14.602Z,8.30
2018-09-29T02:33:43.637Z,8.30
2018-09-29T02:36:12.936Z,8.10
2018-09-29T02:38:41.760Z,8.00
2018-09-29T02:41:10.550Z,7.80
2018-09-29T02:43:39.473Z,7.70
2018-09-29T02:46:08.446Z,7.60
2018-09-29T02:48:37.256Z,7.60
2018-09-29T02:51:06.271Z,7.50
2018-09-29T02:53:35.144Z,7.40
2018-09-29T02:56:03.908Z,7.30
2018-09-29T02:58:32.943Z,7.40
2018-09-29T03:01:02.381Z,7.30
2018-09-29T03:03:31.137Z,7.30
2018-09-29T03:05:59.958Z,7.30
2018-09-29T03:08:28.936Z,7.30
2018-09-29T03:10:58.064Z,7.20
2018-09-29T03:13:27.359Z,7.10
2018-09-29T03:15:56.248Z,6.90
2018-09-29T03:18:25.093Z,7.10
2018-09-29T03:20:54.030Z,7.10
2018-09-29T03:23:23.424Z,7.10
2018-09-29T03:25:52.341Z,7.00
2018-09-29T03:28:21.766Z,7.10
2018-09-29T03:30:50.483Z,7.10
2018-09-29T03:33:19.254Z,7.10
2018-09-29T03:35:48.015Z,7.00
2018-09-29T03:38:16.918Z,7.00
2018-09-29T03:40:46.658Z,6.90
2018-09-29T03:43:16.194Z,7.00
2018-09-29T03:45:45.195Z,6.90
2018-09-29T03:48:14.252Z,7.10
2018-09-29T03:50:43.116Z,7.00
2018-09-29T03:53:12.034Z,6.90
2018-09-29T03:55:40.880Z,6.80
2018-09-29T03:58:10.323Z,6.70
2018-09-29T04:00:39.708Z,6.70
2018-09-29T04:03:08.488Z,6.70
2018-09-29T04:05:37.346Z,6.70
2018-09-29T04:08:06.371Z,6.70
2018-09-29T04:10:35.259Z,6.70
2018-09-29T04:13:04.670Z,6.80
2018-09-29T04:15:33.619Z,7.00
2018-09-29T04:18:02.386Z,7.00
2018-09-29T04:20:31.550Z,7.10
2018-09-29T04:23:00.420Z,7.20
2018-09-29T04:25:29.156Z,7.20
2018-09-29T04:27:58.224Z,7.20
2018-09-29T04:30:39.445Z,7.20
2018-09-29T04:33:08.331Z,7.10
2018-09-29T04:35:47.371Z,6.90
2018-09-29T04:38:16.636Z,6.90
2018-09-29T04:40:45.574Z,6.80
2018-09-29T04:43:36.653Z,6.80
2018-09-29T04:46:10.564Z,6.70
2018-09-29T04:48:52.641Z,6.60
2018-09-29T04:51:44.182Z,6.60
2018-09-29T04:54:13.370Z,6.50
2018-09-29T04:56:42.208Z,6.40
2018-09-29T04:59:11.948Z,6.30
2018-09-29T05:01:40.837Z,6.30
2018-09-29T05:04:10.453Z,6.30
2018-09-29T05:06:39.551Z,6.30
2018-09-29T05:09:09.331Z,6.30
2018-09-29T05:11:39.965Z,6.20
2018-09-29T05:14:08.879Z,6.30
2018-09-29T05:16:37.843Z,6.20
2018-09-29T05:19:07.085Z,6.20
2018-09-29T05:21:35.973Z,6.20
2018-09-29T05:24:04.891Z,6.10
2018-09-29T05:26:35.405Z,6.10
2018-09-29T05:29:04.441Z,6.10
2018-09-29T05:31:35.634Z,6.10
2018-09-29T05:34:04.489Z,6.10
2018-09-29T05:36:33.331Z,6.10
2018-09-29T05:39:02.318Z,6.10
2018-09-29T05:41:32.085Z,6.10
2018-09-29T05:44:01.529Z,6.20
2018-09-29T05:46:31.312Z,6.20
2018-09-29T05:49:01.092Z,6.20
2018-09-29T05:51:30.034Z,6.20
2018-09-29T05:53:58.923Z,6.20
2018-09-29T05:56:27.775Z,6.20
2018-09-29T05:58:57.420Z,6.20
2018-09-29T06:01:26.387Z,6.20
2018-09-29T06:03:55.523Z,6.20
2018-09-29T06:06:24.819Z,6.20
2018-09-29T06:11:48.205Z,6.30
2018-09-29T06:14:17.070Z,6.40
2018-09-29T06:16:46.003Z,6.50
2018-09-29T06:19:14.959Z,6.60
2018-09-29T06:21:45.512Z,6.60
2018-09-29T06:24:14.239Z,6.70
2018-09-29T06:26:43.031Z,6.80
2018-09-29T06:29:12.108Z,6.90
2018-09-29T06:31:41.057Z,7.00
2018-09-29T06:34:09.930Z,7.10
2018-09-29T06:36:38.920Z,7.20
2018-09-29T06:39:10.053Z,7.30
2018-09-29T06:41:39.249Z,7.40
2018-09-29T06:44:08.681Z,7.40
2018-09-29T06:46:37.782Z,7.50
2018-09-29T06:49:06.811Z,7.50
2018-09-29T06:51:35.712Z,7.50
2018-09-29T06:54:05.732Z,7.60
2018-09-29T06:56:35.156Z,7.70
2018-09-29T06:59:04.011Z,7.80
2018-09-29T07:01:32.989Z,7.80
2018-09-29T07:04:01.840Z,7.90
2018-09-29T07:06:30.710Z,8.00
2018-09-29T07:08:59.915Z,8.10
2018-09-29T07:11:29.008Z,8.10
2018-09-29T07:13:58.212Z,8.20
2018-09-29T07:16:27.097Z,8.40
2018-09-29T07:18:55.937Z,8.70
2018-09-29T07:21:24.873Z,8.90
2018-09-29T07:23:53.675Z,9.00
2018-09-29T07:26:22.522Z,9.10
2018-09-29T07:28:51.569Z,9.20
2018-09-29T07:31:20.704Z,9.20
2018-09-29T07:33:51.060Z,9.20
2018-09-29T07:36:20.224Z,9.30
2018-09-29T07:38:49.164Z,9.40
2018-09-29T07:41:18.669Z,9.50
2018-09-29T07:43:47.484Z,9.60
2018-09-29T07:46:16.340Z,9.90
2018-09-29T07:48:45.281Z,10.20
2018-09-29T07:51:14.709Z,10.30
2018-09-29T07:53:43.656Z,10.40
2018-09-29T07:56:13.306Z,10.50
2018-09-29T07:58:42.238Z,10.60
2018-09-29T08:01:11.129Z,11.10
2018-09-29T08:03:40.801Z,11.70
2018-09-29T08:06:09.800Z,11.90
2018-09-29T08:08:39.048Z,12.70
2018-09-29T08:11:08.050Z,13.70
2018-09-29T08:13:36.934Z,14.60
2018-09-29T08:16:05.826Z,16.10
2018-09-29T08:18:35.055Z,17.70
2018-09-29T08:21:04.011Z,18.60
2018-09-29T08:23:32.983Z,19.10
2018-09-29T08:26:02.877Z,20.40
2018-09-29T08:28:31.644Z,20.80
2018-09-29T08:31:00.511Z,21.10
2018-09-29T08:33:29.540Z,21.40
2018-09-29T08:35:58.756Z,22.00
2018-09-29T08:38:27.884Z,22.10
2018-09-29T08:40:56.779Z,23.00
2018-09-29T08:43:26.341Z,22.90
2018-09-29T08:45:55.532Z,23.30
2018-09-29T08:48:24.342Z,22.50
2018-09-29T08:50:53.217Z,22.10
2018-09-29T08:53:22.241Z,23.00
2018-09-29T08:55:51.447Z,23.20
2018-09-29T08:58:20.355Z,23.60
2018-09-29T09:00:50.148Z,23.20
2018-09-29T09:03:19.102Z,23.50
2018-09-29T09:05:48.104Z,23.20
2018-09-29T09:08:16.945Z,23.40
2018-09-29T09:10:46.254Z,23.80
2018-09-29T09:13:15.108Z,23.80
2018-09-29T09:15:44.049Z,24.60
2018-09-29T09:18:13.200Z,25.20
2018-09-29T09:20:42.857Z,25.10
2018-09-29T09:23:11.976Z,25.20
2018-09-29T09:25:40.812Z,25.60
2018-09-29T09:28:10.417Z,26.00
2018-09-29T09:30:39.619Z,25.80
2018-09-29T09:33:08.481Z,26.10
2018-09-29T09:35:37.253Z,26.40
2018-09-29T09:38:06.289Z,26.40
2018-09-29T09:40:35.213Z,26.70
2018-09-29T09:43:03.970Z,26.50
2018-09-29T09:45:33.057Z,26.40
2018-09-29T09:48:02.084Z,26.70
2018-09-29T09:50:30.840Z,27.00
2018-09-29T09:52:59.825Z,25.80
2018-09-29T09:55:28.630Z,25.30
2018-09-29T09:57:58.239Z,25.00
2018-09-29T10:00:32.288Z,25.00
2018-09-29T10:03:07.573Z,24.80
2018-09-29T10:05:36.582Z,25.20
2018-09-29T10:08:05.899Z,25.40
2018-09-29T10:10:35.114Z,26.30
2018-09-29T10:13:05.308Z,26.60
2018-09-29T10:15:34.391Z,26.50
2018-09-29T10:18:03.603Z,27.00
2018-09-29T10:20:32.766Z,27.00
2018-09-29T10:23:13.054Z,27.50
2018-09-29T10:25:42.176Z,26.60
2018-09-29T10:28:11.206Z,26.70
2018-09-29T10:30:40.437Z,26.80
2018-09-29T10:33:13.632Z,27.40
2018-09-29T10:35:45.684Z,27.70
2018-09-29T10:38:15.094Z,27.80
2018-09-29T10:40:49.151Z,27.90
2018-09-29T10:43:19.466Z,27.40
2018-09-29T10:45:48.599Z,27.00
2018-09-29T10:48:17.522Z,26.50
2018-09-29T10:50:47.330Z,26.20
2018-09-29T10:53:16.202Z,25.70
2018-09-29T10:55:45.121Z,25.70
2018-09-29T10:58:14.014Z,25.50
2018-09-29T11:00:43.432Z,25.10
2018-09-29T11:03:12.283Z,24.40
2018-09-29T11:05:41.328Z,24.30
2018-09-29T11:08:10.243Z,25.00
2018-09-29T11:10:42.376Z,24.90
2018-09-29T11:13:11.136Z,24.50
2018-09-29T11:15:40.134Z,24.30
2018-09-29T11:18:09.080Z,24.20
2018-09-29T11:20:37.851Z,24.10
2018-09-29T11:23:07.039Z,24.20
2018-09-29T11:25:36.112Z,24.10
2018-09-29T11:28:05.400Z,24.40
2018-09-29T11:30:34.227Z,24.40
2018-09-29T11:33:03.015Z,24.80
2018-09-29T11:35:32.044Z,25.10
2018-09-29T11:38:01.327Z,24.90
2018-09-29T11:40:30.516Z,24.10
2018-09-29T11:42:59.357Z,23.60
2018-09-29T11:45:28.141Z,23.80
2018-09-29T11:47:57.194Z,24.20
2018-09-29T11:50:26.513Z,24.10
2018-09-29T11:52:55.325Z,23.40
2018-09-29T11:55:24.087Z,23.30
2018-09-29T11:57:53.303Z,23.10
2018-09-29T12:00:22.197Z,23.60
2018-09-29T12:02:51.207Z,23.70
2018-09-29T12:05:20.037Z,23.50
2018-09-29T12:07:49.065Z,23.70
2018-09-29T12:10:18.009Z,23.80
2018-09-29T12:12:47.468Z,23.30
2018-09-29T12:15:16.347Z,23.60
2018-09-29T12:17:45.202Z,23.50
2018-09-29T12:20:14.016Z,23.50
2018-09-29T12:22:43.043Z,23.50
2018-09-29T12:25:11.886Z,24.10
2018-09-29T12:27:40.889Z,24.00
2018-09-29T12:30:10.567Z,24.50
2018-09-29T12:32:39.392Z,24.50
2018-09-29T12:35:08.231Z,24.00
2018-09-29T12:37:37.134Z,24.40
2018-09-29T12:40:06.269Z,24.20
2018-09-29T12:42:39.915Z,24.10
2018-09-29T12:45:08.752Z,24.30
2018-09-29T12:47:37.643Z,24.00
2018-09-29T12:50:09.944Z,23.80
2018-09-29T12:52:38.700Z,24.20
2018-09-29T12:55:08.143Z,24.40
2018-09-29T12:57:37.024Z,24.10
2018-09-29T13:00:06.805Z,24.10
2018-09-29T13:02:35.785Z,23.50
2018-09-29T13:05:05.136Z,23.70
2018-09-29T13:07:34.092Z,23.50
2018-09-29T13:10:03.187Z,23.30
2018-09-29T13:12:32.045Z,23.60
2018-09-29T13:15:06.277Z,23.80
2018-09-29T13:17:36.224Z,23.40
2018-09-29T13:20:10.847Z,23.00
2018-09-29T13:22:40.347Z,23.00
2018-09-29T13:25:10.285Z,23.20
2018-09-29T13:27:39.097Z,23.30
2018-09-29T13:30:08.099Z,23.50
2018-09-29T13:32:37.281Z,23.40
2018-09-29T13:35:06.152Z,23.30
2018-09-29T13:37:35.151Z,23.20
2018-09-29T13:40:04.060Z,23.20
2018-09-29T13:42:32.923Z,23.20
2018-09-29T13:45:01.656Z,22.60
2018-09-29T13:47:34.636Z,22.70
2018-09-29T13:50:03.515Z,22.60
2018-09-29T13:52:32.349Z,22.70
2018-09-29T13:55:01.253Z,22.70
2018-09-29T13:57:30.159Z,22.80
2018-09-29T13:59:59.864Z,22.90
2018-09-29T14:02:28.954Z,22.90
2018-09-29T14:04:57.753Z,23.00
2018-09-29T14:07:27.322Z,23.20
2018-09-29T14:09:56.201Z,23.20
2018-09-29T14:12:24.994Z,22.60
2018-09-29T14:14:53.925Z,22.40
2018-09-29T14:17:22.813Z,22.20
2018-09-29T14:19:52.267Z,22.40
2018-09-29T14:22:21.105Z,22.60
2018-09-29T14:24:49.906Z,22.20
2018-09-29T14:27:20.448Z,22.10
2018-09-29T14:29:49.448Z,22.10
2018-09-29T14:32:18.690Z,22.30
2018-09-29T14:34:47.517Z,22.40
2018-09-29T14:37:16.309Z,22.60
2018-09-29T14:39:46.367Z,22.70
2018-09-29T14:42:15.229Z,22.60
2018-09-29T14:44:56.699Z,22.70
2018-09-29T14:47:25.732Z,22.20
2018-09-29T14:49:54.702Z,22.10
2018-09-29T14:52:24.387Z,22.00
2018-09-29T14:54:53.089Z,22.20
2018-09-29T14:57:22.066Z,22.20
2018-09-29T14:59:51.013Z,22.40
2018-09-29T15:02:20.085Z,22.10
2018-09-29T15:04:49.102Z,21.90
2018-09-29T15:07:18.200Z,22.00
2018-09-29T15:09:47.075Z,22.10
2018-09-29T15:12:16.030Z,22.10
2018-09-29T15:14:44.902Z,21.80
2018-09-29T15:17:13.564Z,21.40
2018-09-29T15:19:42.743Z,21.30
2018-09-29T15:22:11.828Z,21.10
2018-09-29T15:24:40.809Z,20.80
2018-09-29T15:27:09.629Z,20.80
2018-09-29T15:29:50.438Z,20.70
2018-09-29T15:32:19.542Z,20.60
2018-09-29T15:34:48.822Z,20.10
2018-09-29T15:37:17.999Z,19.90
2018-09-29T15:39:46.880Z,19.70
2018-09-29T15:42:16.697Z,19.30
2018-09-29T15:44:47.091Z,19.10
2018-09-29T15:47:16.702Z,19.00
2018-09-29T15:49:46.226Z,18.90
2018-09-29T15:52:15.245Z,18.70
2018-09-29T15:54:44.351Z,18.50
2018-09-29T15:57:13.790Z,18.30
2018-09-29T15:59:42.900Z,18.10
2018-09-29T16:02:11.800Z,17.90
2018-09-29T16:04:53.421Z,17.70
2018-09-29T16:10:16.109Z,17.50
2018-09-29T16:12:45.184Z,17.40
2018-09-29T16:15:14.372Z,17.20
2018-09-29T16:17:43.614Z,17.00
2018-09-29T16:20:12.812Z,16.90
2018-09-29T16:22:41.655Z,16.90
2018-09-29T16:25:10.603Z,16.80
2018-09-29T16:27:39.692Z,16.70
2018-09-29T16:30:08.911Z,16.60
2018-09-29T16:32:37.904Z,16.40
2018-09-29T16:35:06.999Z,16.20
2018-09-29T16:37:36.558Z,16.00
2018-09-29T16:40:05.714Z,15.80
2018-09-29T16:42:44.768Z,15.40
2018-09-29T16:45:13.799Z,15.10
2018-09-29T16:47:42.807Z,14.80
2018-09-29T16:50:11.597Z,14.50
2018-09-29T16:52:40.653Z,14.30
2018-09-29T16:55:09.781Z,14.00
2018-09-29T16:57:38.752Z,13.90
2018-09-29T17:00:07.644Z,13.60
2018-09-29T17:02:37.117Z,13.40
2018-09-29T17:05:05.940Z,13.10
2018-09-29T17:07:35.414Z,12.80
2018-09-29T17:10:04.292Z,12.60
2018-09-29T17:12:33.167Z,12.40
2018-09-29T17:15:02.266Z,12.20
2018-09-29T17:17:31.142Z,12.00
2018-09-29T17:20:00.209Z,11.80
2018-09-29T17:22:29.079Z,11.80
2018-09-29T17:24:58.106Z,11.70
2018-09-29T17:27:26.981Z,11.80
2018-09-29T17:29:55.938Z,11.70
2018-09-29T17:32:25.268Z,11.70
2018-09-29T17:34:54.331Z,11.60
2018-09-29T17:37:23.313Z,11.50
2018-09-29T17:39:52.872Z,11.50
2018-09-29T17:42:21.870Z,11.40
2018-09-29T17:44:51.481Z,11.20
2018-09-29T17:47:20.619Z,11.10
2018-09-29T17:49:49.577Z,11.00
2018-09-29T17:52:18.486Z,11.00
2018-09-29T17:54:47.931Z,10.80
2018-09-29T17:57:17.051Z,10.60
2018-09-29T17:59:45.947Z,10.50
2018-09-29T18:02:15.028Z,10.30
2018-09-29T18:04:44.048Z,10.20
2018-09-29T18:07:13.171Z,10.00
2018-09-29T18:09:42.020Z,10.10
2018-09-29T18:12:11.751Z,9.90
2018-09-29T18:14:41.247Z,9.80
2018-09-29T18:17:10.328Z,9.70
2018-09-29T18:19:39.190Z,9.70
2018-09-29T18:22:08.073Z,9.50
2018-09-29T18:24:37.005Z,9.50
2018-09-29T18:27:06.257Z,9.50
2018-09-29T18:29:35.101Z,9.40
2018-09-29T18:32:03.938Z,9.30
2018-09-29T18:34:32.945Z,9.10
2018-09-29T18:37:02.594Z,9.00
2018-09-29T18:39:31.491Z,9.00
2018-09-29T18:42:00.507Z,8.90
2018-09-29T18:44:29.468Z,8.80
2018-09-29T18:46:58.368Z,8.90
2018-09-29T18:49:27.254Z,8.90
2018-09-29T18:51:56.402Z,8.80
2018-09-29T18:54:31.647Z,8.80
2018-09-29T18:57:00.722Z,8.70
2018-09-29T18:59:30.561Z,8.70
2018-09-29T19:01:59.356Z,8.70
2018-09-29T19:04:28.531Z,8.60
2018-09-29T19:06:57.368Z,8.60
2018-09-29T19:09:26.250Z,8.50
2018-09-29T19:11:56.300Z,8.40
2018-09-29T19:14:25.127Z,8.40
2018-09-29T19:16:54.307Z,8.30
2018-09-29T19:19:23.872Z,8.30
2018-09-29T19:21:53.134Z,8.20
2018-09-29T19:24:22.375Z,8.20
2018-09-29T19:26:51.421Z,8.20
2018-09-29T19:29:20.408Z,8.10
2018-09-29T19:31:49.896Z,8.10
2018-09-29T19:34:19.071Z,8.10
2018-09-29T19:36:48.214Z,8.10
2018-09-29T19:39:17.108Z,8.10
2018-09-29T19:41:48.825Z,8.00
2018-09-29T19:44:18.004Z,7.90
2018-09-29T19:46:47.060Z,7.90
2018-09-29T19:49:16.543Z,7.90
2018-09-29T19:51:45.614Z,7.90
2018-09-29T19:54:14.637Z,7.80
2018-09-29T19:56:44.541Z,7.80
2018-09-29T19:59:14.029Z,7.70
2018-09-29T20:01:42.826Z,7.70
2018-09-29T20:04:11.838Z,7.60
2018-09-29T20:06:40.870Z,7.60
2018-09-29T20:09:11.304Z,7.60
2018-09-29T20:11:40.501Z,7.50
2018-09-29T20:14:09.616Z,7.50
2018-09-29T20:16:38.601Z,7.60
2018-09-29T20:19:08.231Z,7.60
2018-09-29T20:21:37.142Z,7.50
2018-09-29T20:24:06.257Z,7.50
2018-09-29T20:26:35.785Z,7.50
2018-09-29T20:29:04.672Z,7.40
2018-09-29T20:31:34.328Z,7.40
2018-09-29T20:34:03.348Z,7.40
2018-09-29T20:36:32.374Z,7.30
2018-09-29T20:39:01.309Z,7.30
2018-09-29T20:41:31.509Z,7.30
2018-09-29T20:44:00.381Z,7.20
2018-09-29T20:46:29.337Z,7.20
2018-09-29T20:48:58.236Z,7.10
2018-09-29T20:51:27.169Z,7.00
2018-09-29T20:53:57.046Z,6.90
2018-09-29T20:56:26.072Z,6.90
2018-09-29T20:58:54.956Z,6.90
2018-09-29T21:01:24.056Z,6.90
2018-09-29T21:03:53.846Z,6.80
2018-09-29T21:06:23.393Z,6.70
2018-09-29T21:08:52.578Z,6.70
2018-09-29T21:11:21.541Z,6.60
2018-09-29T21:13:50.321Z,6.50
2018-09-29T21:16:19.322Z,6.50
2018-09-29T21:18:48.535Z,6.50
2018-09-29T21:21:17.711Z,6.50
2018-09-29T21:23:46.630Z,6.50
2018-09-29T21:26:15.480Z,6.50
2018-09-29T21:28:44.521Z,6.40
2018-09-29T21:31:13.608Z,6.40
2018-09-29T21:33:42.438Z,6.40
2018-09-29T21:36:11.353Z,6.40
2018-09-29T21:38:40.386Z,6.30
2018-09-29T21:41:09.390Z,6.30
2018-09-29T21:43:38.295Z,6.30
2018-09-29T21:46:07.168Z,6.30
2018-09-29T21:48:36.383Z,6.30
2018-09-29T21:51:05.544Z,6.30
2018-09-29T21:53:34.505Z,6.30
2018-09-29T21:56:03.418Z,6.20
2018-09-29T21:58:32.784Z,6.10
2018-09-29T22:01:06.984Z,6.10
2018-09-29T22:03:35.773Z,6.00
2018-09-29T22:06:04.790Z,5.90
2018-09-29T22:08:33.741Z,5.90
2018-09-29T22:11:02.598Z,5.90
2018-09-29T22:13:32.411Z,5.90
2018-09-29T22:16:01.386Z,5.80
2018-09-29T22:18:30.303Z,5.70
2018-09-29T22:20:59.323Z,5.70
2018-09-29T22:23:28.098Z,5.80
2018-09-29T22:25:57.084Z,5.70
2018-09-29T22:28:35.953Z,5.60
2018-09-29T22:31:04.905Z,5.60
2018-09-29T22:33:33.884Z,5.60
2018-09-29T22:36:03.265Z,5.70
2018-09-29T22:38:32.199Z,5.70
2018-09-29T22:41:01.755Z,5.70
2018-09-29T22:43:30.742Z,5.60
2018-09-29T22:45:59.559Z,5.50
2018-09-29T22:48:28.442Z,5.50
2018-09-29T22:50:57.637Z,5.50
2018-09-29T22:53:26.574Z,5.50
2018-09-29T22:55:55.521Z,5.40
2018-09-29T22:58:24.395Z,5.40
2018-09-29T23:00:53.417Z,5.30
2018-09-29T23:03:22.905Z,5.20
2018-09-29T23:05:52.268Z,5.20
2018-09-29T23:08:21.164Z,5.20
2018-09-29T23:10:50.004Z,5.20
2018-09-29T23:13:18.831Z,5.10
2018-09-29T23:15:47.880Z,5.10
2018-09-29T23:18:17.104Z,5.00
2018-09-29T23:20:45.974Z,5.00
2018-09-29T23:23:14.827Z,5.00
2018-09-29T23:25:43.907Z,5.00
2018-09-29T23:28:13.062Z,5.00
2018-09-29T23:30:41.963Z,5.00
2018-09-29T23:33:10.819Z,5.00
2018-09-29T23:35:40.160Z,4.90
2018-09-29T23:38:09.841Z,5.00
2018-09-29T23:40:38.793Z,5.00
2018-09-29T23:43:07.978Z,4.90
2018-09-29T23:45:36.766Z,4.80
2018-09-29T23:48:05.601Z,4.90
2018-09-29T23:50:34.403Z,4.90
2018-09-29T23:53:03.361Z,4.90
2018-09-29T23:55:32.232Z,4.90
2018-09-29T23:58:01.026Z,4.90
